createdAt,value
2018-05-31T00:00:56.667Z,22.36
2018-05-31T00:01:56.727Z,22.30
2018-05-31T00:03:50.236Z,22.30
2018-05-31T00:04:50.301Z,22.23
2018-05-31T00:06:43.314Z,22.28
2018-05-31T00:07:43.371Z,22.20
2018-05-31T00:09:36.370Z,22.30
2018-05-31T00:10:36.437Z,22.38
2018-05-31T00:12:29.442Z,22.29
2018-05-31T00:13:29.502Z,22.41
2018-05-31T00:15:22.506Z,22.35
2018-05-31T00:16:22.572Z,22.32
2018-05-31T00:18:15.577Z,22.39
2018-05-31T00:19:15.636Z,22.29
2018-05-31T00:21:08.641Z,22.25
2018-05-31T00:22:08.702Z,22.22
2018-05-31T00:24:01.701Z,22.28
2018-05-31T00:25:01.777Z,22.20
2018-05-31T00:26:54.772Z,22.23
2018-05-31T00:27:54.833Z,22.23
2018-05-31T00:29:47.829Z,22.28
2018-05-31T00:30:47.899Z,22.14
2018-05-31T00:32:40.901Z,22.22
2018-05-31T00:33:40.962Z,22.25
2018-05-31T00:35:33.959Z,22.25
2018-05-31T00:36:34.029Z,22.23
2018-05-31T00:38:27.039Z,22.28
2018-05-31T00:39:27.097Z,22.25
2018-05-31T00:41:20.111Z,22.15
2018-05-31T00:42:20.190Z,22.15
2018-05-31T00:44:13.167Z,22.15
2018-05-31T00:45:13.235Z,22.07
2018-05-31T00:47:06.237Z,22.13
2018-05-31T00:48:06.297Z,21.99
2018-05-31T00:49:59.295Z,22.07
2018-05-31T00:50:59.366Z,22.06
2018-05-31T00:52:52.365Z,21.99
2018-05-31T00:53:52.428Z,21.98
2018-05-31T00:55:45.430Z,22.00
2018-05-31T00:56:45.492Z,21.99
2018-05-31T00:58:38.497Z,21.95
2018-05-31T00:59:38.558Z,21.89
2018-05-31T01:01:31.564Z,21.91
2018-05-31T01:02:31.626Z,21.88
2018-05-31T01:04:25.135Z,21.98
2018-05-31T01:05:25.200Z,21.96
2018-05-31T01:07:18.202Z,21.88
2018-05-31T01:08:18.264Z,21.85
2018-05-31T01:10:11.262Z,21.82
2018-05-31T01:11:11.331Z,21.79
2018-05-31T01:13:04.347Z,21.76
2018-05-31T01:14:04.409Z,21.73
2018-05-31T01:15:57.412Z,21.82
2018-05-31T01:16:57.478Z,21.64
2018-05-31T01:18:50.478Z,21.77
2018-05-31T01:19:50.540Z,21.62
2018-05-31T01:21:43.544Z,21.66
2018-05-31T01:22:43.605Z,21.58
2018-05-31T01:24:36.603Z,21.58
2018-05-31T01:25:36.669Z,21.66
2018-05-31T01:27:29.679Z,21.79
2018-05-31T01:28:29.744Z,21.69
2018-05-31T01:30:22.740Z,21.70
2018-05-31T01:31:22.804Z,21.64
2018-05-31T01:33:15.805Z,21.67
2018-05-31T01:34:15.868Z,21.66
2018-05-31T01:36:08.869Z,21.70
2018-05-31T01:37:08.934Z,21.67
2018-05-31T01:39:01.940Z,21.64
2018-05-31T01:40:01.999Z,21.66
2018-05-31T01:41:55.003Z,21.61
2018-05-31T01:42:55.064Z,21.51
2018-05-31T01:45:02.585Z,21.57
2018-05-31T01:45:48.135Z,21.54
2018-05-31T01:47:41.137Z,21.51
2018-05-31T01:48:41.196Z,21.51
2018-05-31T01:50:34.195Z,21.40
2018-05-31T01:51:34.261Z,21.37
2018-05-31T01:53:27.265Z,21.40
2018-05-31T01:54:27.326Z,21.43
2018-05-31T01:56:20.323Z,21.43
2018-05-31T01:57:20.391Z,21.43
2018-05-31T01:59:13.396Z,21.40
2018-05-31T02:00:13.457Z,21.48
2018-05-31T02:02:06.460Z,21.43
2018-05-31T02:03:06.517Z,21.42
2018-05-31T02:04:59.514Z,21.42
2018-05-31T02:05:59.581Z,21.32
2018-05-31T02:07:52.584Z,21.27
2018-05-31T02:08:52.667Z,21.37
2018-05-31T02:10:45.646Z,21.29
2018-05-31T02:11:45.710Z,21.30
2018-05-31T02:13:38.717Z,21.29
2018-05-31T02:14:38.780Z,21.27
2018-05-31T02:16:31.773Z,21.25
2018-05-31T02:17:31.840Z,21.32
2018-05-31T02:19:24.847Z,21.22
2018-05-31T02:20:24.913Z,21.22
2018-05-31T02:22:17.916Z,21.21
2018-05-31T02:23:17.976Z,21.22
2018-05-31T02:25:10.976Z,21.15
2018-05-31T02:26:11.039Z,21.12
2018-05-31T02:28:04.042Z,21.25
2018-05-31T02:29:04.102Z,21.18
2018-05-31T02:30:57.099Z,21.14
2018-05-31T02:31:57.164Z,21.12
2018-05-31T02:33:50.175Z,21.09
2018-05-31T02:34:50.228Z,21.14
2018-05-31T02:36:43.228Z,21.14
2018-05-31T02:37:43.290Z,21.18
2018-05-31T02:39:36.295Z,21.20
2018-05-31T02:40:36.355Z,21.14
2018-05-31T02:42:29.360Z,21.12
2018-05-31T02:43:29.417Z,21.11
2018-05-31T02:45:22.416Z,21.07
2018-05-31T02:46:22.481Z,21.18
2018-05-31T02:48:15.485Z,21.15
2018-05-31T02:49:15.543Z,21.21
2018-05-31T02:51:08.540Z,21.17
2018-05-31T02:52:08.607Z,21.30
2018-05-31T02:54:01.619Z,21.35
2018-05-31T02:55:01.672Z,21.33
2018-05-31T02:56:54.674Z,21.29
2018-05-31T02:57:54.740Z,21.35
2018-05-31T02:59:47.746Z,21.24
2018-05-31T03:00:47.805Z,21.30
2018-05-31T03:02:40.810Z,21.36
2018-05-31T03:03:40.872Z,21.35
2018-05-31T03:05:33.865Z,21.35
2018-05-31T03:06:33.934Z,21.36
2018-05-31T03:08:26.966Z,21.37
2018-05-31T03:09:27.005Z,21.35
2018-05-31T03:11:20.007Z,21.30
2018-05-31T03:12:20.065Z,21.32
2018-05-31T03:14:13.067Z,21.36
2018-05-31T03:15:13.127Z,21.21
2018-05-31T03:17:06.122Z,21.30
2018-05-31T03:18:06.194Z,21.30
2018-05-31T03:19:59.193Z,21.33
2018-05-31T03:20:59.251Z,21.22
2018-05-31T03:22:52.279Z,21.22
2018-05-31T03:23:52.313Z,21.22
2018-05-31T03:25:45.311Z,21.27
2018-05-31T03:26:45.376Z,21.30
2018-05-31T03:28:38.380Z,21.22
2018-05-31T03:29:38.439Z,21.27
2018-05-31T03:31:31.438Z,21.17
2018-05-31T03:32:31.505Z,21.11
2018-05-31T03:34:24.509Z,21.18
2018-05-31T03:35:24.562Z,21.18
2018-05-31T03:37:17.560Z,21.27
2018-05-31T03:38:17.626Z,21.21
2018-05-31T03:40:10.629Z,21.21
2018-05-31T03:41:10.689Z,21.21
2018-05-31T03:43:03.696Z,21.17
2018-05-31T03:44:03.753Z,21.20
2018-05-31T03:45:56.749Z,21.15
2018-05-31T03:46:56.815Z,21.17
2018-05-31T03:48:49.825Z,21.18
2018-05-31T03:49:49.881Z,21.18
2018-05-31T03:51:42.887Z,21.06
2018-05-31T03:52:42.959Z,21.03
2018-05-31T03:54:35.959Z,21.06
2018-05-31T03:55:36.020Z,21.09
2018-05-31T03:57:29.021Z,20.99
2018-05-31T03:58:29.086Z,21.17
2018-05-31T04:00:22.089Z,21.17
2018-05-31T04:01:22.146Z,21.15
2018-05-31T04:03:15.149Z,21.17
2018-05-31T04:04:15.211Z,21.21
2018-05-31T04:06:08.216Z,21.27
2018-05-31T04:07:08.276Z,21.29
2018-05-31T04:09:01.280Z,21.29
2018-05-31T04:10:01.337Z,21.22
2018-05-31T04:11:54.334Z,21.36
2018-05-31T04:12:54.401Z,21.40
2018-05-31T04:14:47.401Z,21.42
2018-05-31T04:15:47.462Z,21.42
2018-05-31T04:17:40.461Z,21.46
2018-05-31T04:18:40.526Z,21.37
2018-05-31T04:20:33.536Z,21.54
2018-05-31T04:21:33.591Z,21.40
2018-05-31T04:23:26.596Z,21.54
2018-05-31T04:24:26.650Z,21.45
2018-05-31T04:26:19.656Z,21.55
2018-05-31T04:27:19.718Z,21.58
2018-05-31T04:29:12.726Z,21.57
2018-05-31T04:30:12.786Z,21.62
2018-05-31T04:32:05.787Z,21.67
2018-05-31T04:33:05.852Z,21.70
2018-05-31T04:34:58.867Z,21.67
2018-05-31T04:35:58.924Z,21.67
2018-05-31T04:37:51.921Z,21.66
2018-05-31T04:38:51.987Z,21.79
2018-05-31T04:40:44.991Z,21.70
2018-05-31T04:41:45.051Z,21.64
2018-05-31T04:43:38.052Z,21.69
2018-05-31T04:44:38.114Z,21.60
2018-05-31T04:46:31.116Z,21.50
2018-05-31T04:47:31.185Z,21.54
2018-05-31T04:49:24.198Z,21.52
2018-05-31T04:50:24.251Z,21.60
2018-05-31T04:52:17.253Z,21.62
2018-05-31T04:53:17.312Z,21.67
2018-05-31T04:55:10.320Z,21.67
2018-05-31T04:56:10.377Z,21.72
2018-05-31T04:58:03.377Z,21.64
2018-05-31T04:59:03.440Z,21.69
2018-05-31T05:00:56.446Z,21.77
2018-05-31T05:01:56.505Z,21.82
2018-05-31T05:03:49.508Z,21.91
2018-05-31T05:04:49.569Z,21.83
2018-05-31T05:06:42.565Z,21.73
2018-05-31T05:07:42.632Z,21.93
2018-05-31T05:09:35.640Z,21.99
2018-05-31T05:10:35.698Z,21.98
2018-05-31T05:12:28.706Z,21.96
2018-05-31T05:13:28.775Z,22.08
2018-05-31T05:15:21.777Z,22.08
2018-05-31T05:16:21.847Z,22.13
2018-05-31T05:18:14.836Z,22.15
2018-05-31T05:19:14.901Z,22.04
2018-05-31T05:21:07.907Z,21.95
2018-05-31T05:22:07.965Z,22.04
2018-05-31T05:24:00.972Z,22.07
2018-05-31T05:25:01.033Z,22.14
2018-05-31T05:26:54.032Z,22.13
2018-05-31T05:27:54.095Z,22.06
2018-05-31T05:29:47.103Z,22.08
2018-05-31T05:30:47.161Z,22.13
2018-05-31T05:32:40.163Z,22.11
2018-05-31T05:33:40.231Z,22.17
2018-05-31T05:35:33.236Z,22.17
2018-05-31T05:36:33.294Z,22.18
2018-05-31T05:38:26.293Z,22.33
2018-05-31T05:39:26.360Z,22.41
2018-05-31T05:41:19.440Z,22.59
2018-05-31T05:42:19.464Z,22.70
2018-05-31T05:44:12.442Z,22.73
2018-05-31T05:45:12.517Z,22.75
2018-05-31T05:47:05.525Z,22.94
2018-05-31T05:48:05.589Z,23.08
2018-05-31T05:49:58.580Z,23.43
2018-05-31T05:50:58.641Z,23.51
2018-05-31T05:52:51.637Z,23.69
2018-05-31T05:53:51.703Z,23.78
2018-05-31T05:55:45.242Z,23.81
2018-05-31T05:56:45.303Z,23.69
2018-05-31T05:58:38.301Z,23.74
2018-05-31T05:59:38.368Z,23.87
2018-05-31T06:01:31.387Z,23.78
2018-05-31T06:02:31.452Z,23.80
2018-05-31T06:04:24.459Z,23.98
2018-05-31T06:05:24.523Z,24.11
2018-05-31T06:07:18.026Z,24.36
2018-05-31T06:08:18.095Z,24.54
2018-05-31T06:10:11.197Z,24.98
2018-05-31T06:11:11.162Z,25.07
2018-05-31T06:13:04.160Z,25.55
2018-05-31T06:14:04.227Z,26.05
2018-05-31T06:15:57.234Z,27.11
2018-05-31T06:16:57.297Z,27.47
2018-05-31T06:18:50.297Z,28.27
2018-05-31T06:19:50.427Z,28.60
2018-05-31T06:21:43.393Z,28.60
2018-05-31T06:22:43.463Z,28.76
2018-05-31T06:24:36.502Z,29.23
2018-05-31T06:25:36.532Z,29.49
2018-05-31T06:27:29.537Z,29.60
2018-05-31T06:28:29.601Z,29.68
2018-05-31T06:30:22.612Z,29.16
2018-05-31T06:31:22.676Z,29.04
2018-05-31T06:33:15.683Z,28.84
2018-05-31T06:34:15.767Z,28.67
2018-05-31T06:36:08.765Z,28.81
2018-05-31T06:37:08.872Z,28.56
2018-05-31T06:39:01.838Z,28.82
2018-05-31T06:40:02.111Z,28.86
2018-05-31T06:41:54.919Z,29.12
2018-05-31T06:42:54.989Z,29.17
2018-05-31T06:44:47.999Z,29.39
2018-05-31T06:45:48.100Z,29.50
2018-05-31T06:47:41.065Z,29.59
2018-05-31T06:48:41.139Z,29.44
2018-05-31T06:50:34.151Z,30.66
2018-05-31T06:51:34.218Z,31.21
2018-05-31T06:53:27.225Z,32.19
2018-05-31T06:54:27.298Z,32.22
2018-05-31T06:56:20.313Z,32.38
2018-05-31T06:57:20.378Z,32.38
2018-05-31T06:59:13.389Z,32.67
2018-05-31T07:00:13.467Z,32.70
2018-05-31T07:02:06.500Z,33.67
2018-05-31T07:03:06.550Z,34.17
2018-05-31T07:04:59.566Z,34.96
2018-05-31T07:05:59.637Z,35.14
2018-05-31T07:07:53.157Z,35.22
2018-05-31T07:08:53.227Z,35.27
2018-05-31T07:10:46.255Z,35.34
2018-05-31T07:11:46.322Z,35.24
2018-05-31T07:13:39.370Z,34.90
2018-05-31T07:14:39.421Z,34.95
2018-05-31T07:16:32.446Z,34.95
2018-05-31T07:17:32.517Z,35.23
2018-05-31T07:19:25.548Z,34.54
2018-05-31T07:20:25.604Z,34.58
2018-05-31T07:22:18.636Z,34.74
2018-05-31T07:23:18.698Z,35.07
2018-05-31T07:25:11.724Z,34.66
2018-05-31T07:26:11.794Z,35.26
2018-05-31T07:28:04.817Z,35.78
2018-05-31T07:29:04.889Z,36.23
2018-05-31T07:30:57.923Z,36.28
2018-05-31T07:31:57.998Z,35.90
2018-05-31T07:33:51.020Z,35.41
2018-05-31T07:34:51.090Z,35.27
2018-05-31T07:36:44.125Z,34.23
2018-05-31T07:37:44.201Z,33.46
2018-05-31T07:39:37.215Z,34.17
2018-05-31T07:40:37.289Z,34.45
2018-05-31T07:42:30.319Z,35.26
2018-05-31T07:43:30.400Z,35.15
2018-05-31T07:45:23.414Z,34.60
2018-05-31T07:46:23.489Z,34.57
2018-05-31T07:48:16.498Z,35.17
2018-05-31T07:49:16.584Z,35.22
2018-05-31T07:51:09.615Z,35.78
2018-05-31T07:52:09.688Z,35.58
2018-05-31T07:54:02.706Z,35.90
2018-05-31T07:55:02.788Z,36.52
2018-05-31T07:56:55.827Z,36.39
2018-05-31T07:57:55.900Z,36.07
2018-05-31T07:59:48.922Z,36.77
2018-05-31T08:00:48.999Z,37.03
2018-05-31T08:02:42.029Z,36.67
2018-05-31T08:03:42.118Z,37.11
2018-05-31T08:05:35.131Z,36.95
2018-05-31T08:06:35.202Z,36.81
2018-05-31T08:08:28.230Z,37.44
2018-05-31T08:09:28.310Z,37.63
2018-05-31T08:11:21.360Z,38.50
2018-05-31T08:12:21.418Z,37.87
2018-05-31T08:14:14.443Z,37.92
2018-05-31T08:15:14.515Z,37.58
2018-05-31T08:17:07.573Z,37.14
2018-05-31T08:18:07.644Z,38.02
2018-05-31T08:20:00.672Z,37.93
2018-05-31T08:21:00.755Z,37.84
2018-05-31T08:22:53.792Z,38.27
2018-05-31T08:23:53.867Z,38.39
2018-05-31T08:25:46.912Z,38.54
2018-05-31T08:26:46.983Z,38.45
2018-05-31T08:28:40.028Z,38.36
2018-05-31T08:29:40.111Z,38.39
2018-05-31T08:31:33.222Z,38.61
2018-05-31T08:32:33.215Z,38.79
2018-05-31T08:34:26.248Z,38.57
2018-05-31T08:35:26.324Z,38.61
2018-05-31T08:37:19.357Z,39.49
2018-05-31T08:38:19.445Z,39.83
2018-05-31T08:40:12.473Z,40.26
2018-05-31T08:41:12.550Z,39.97
2018-05-31T08:43:05.585Z,39.15
2018-05-31T08:44:05.722Z,39.18
2018-05-31T08:45:58.703Z,39.26
2018-05-31T08:46:58.773Z,39.83
2018-05-31T08:48:51.802Z,40.53
2018-05-31T08:49:51.896Z,40.27
2018-05-31T08:51:44.940Z,39.46
2018-05-31T08:52:45.014Z,39.36
2018-05-31T08:54:38.048Z,39.81
2018-05-31T08:55:38.128Z,39.59
2018-05-31T08:57:31.172Z,38.76
2018-05-31T08:58:31.233Z,38.40
2018-05-31T09:00:25.765Z,38.89
2018-05-31T09:01:25.844Z,38.58
2018-05-31T09:03:18.881Z,38.46
2018-05-31T09:04:18.961Z,37.92
2018-05-31T09:06:11.998Z,35.58
2018-05-31T09:07:12.079Z,34.33
2018-05-31T09:09:05.093Z,33.28
2018-05-31T09:10:05.166Z,32.68
2018-05-31T09:11:58.200Z,32.30
2018-05-31T09:12:58.269Z,32.55
2018-05-31T09:14:51.305Z,33.15
2018-05-31T09:15:51.364Z,33.40
2018-05-31T09:17:44.404Z,33.90
2018-05-31T09:18:44.472Z,34.58
2018-05-31T09:20:37.512Z,35.05
2018-05-31T09:21:37.590Z,35.93
2018-05-31T09:23:30.619Z,35.49
2018-05-31T09:24:30.684Z,35.08
2018-05-31T09:26:23.708Z,34.67
2018-05-31T09:27:23.786Z,34.47
2018-05-31T09:29:16.823Z,33.67
2018-05-31T09:30:17.200Z,33.50
2018-05-31T09:32:09.912Z,32.95
2018-05-31T09:33:09.995Z,33.49
2018-05-31T09:35:03.021Z,34.05
2018-05-31T09:36:03.075Z,34.23
2018-05-31T09:37:56.119Z,34.14
2018-05-31T09:38:56.178Z,34.03
2018-05-31T09:40:49.210Z,34.02
2018-05-31T09:41:49.293Z,33.62
2018-05-31T09:43:42.315Z,32.86
2018-05-31T09:44:42.382Z,32.87
2018-05-31T09:46:35.994Z,33.42
2018-05-31T09:47:35.986Z,33.50
2018-05-31T09:49:29.021Z,32.95
2018-05-31T09:50:29.084Z,32.95
2018-05-31T09:52:22.109Z,33.36
2018-05-31T09:53:22.168Z,33.57
2018-05-31T09:55:15.193Z,33.39
2018-05-31T09:56:15.265Z,33.46
2018-05-31T09:58:08.323Z,32.48
2018-05-31T09:59:08.354Z,32.58
2018-05-31T10:01:01.375Z,32.40
2018-05-31T10:02:01.449Z,32.12
2018-05-31T10:03:54.509Z,32.31
2018-05-31T10:04:54.565Z,32.48
2018-05-31T10:06:47.600Z,32.38
2018-05-31T10:07:47.676Z,32.58
2018-05-31T10:09:40.691Z,32.96
2018-05-31T10:10:40.760Z,32.95
2018-05-31T10:12:33.789Z,33.14
2018-05-31T10:13:33.845Z,33.43
2018-05-31T10:15:26.867Z,33.61
2018-05-31T10:16:26.929Z,33.76
2018-05-31T10:18:19.964Z,33.73
2018-05-31T10:19:20.020Z,33.27
2018-05-31T10:21:13.039Z,32.75
2018-05-31T10:22:13.153Z,32.90
2018-05-31T10:24:06.150Z,33.27
2018-05-31T10:25:06.216Z,33.19
2018-05-31T10:26:59.233Z,33.20
2018-05-31T10:27:59.302Z,33.28
2018-05-31T10:29:52.321Z,32.49
2018-05-31T10:30:52.390Z,32.21
2018-05-31T10:32:45.417Z,32.48
2018-05-31T10:33:45.482Z,32.29
2018-05-31T10:35:38.502Z,31.84
2018-05-31T10:36:38.567Z,32.12
2018-05-31T10:38:31.588Z,32.12
2018-05-31T10:39:31.663Z,32.00
2018-05-31T10:41:24.743Z,32.00
2018-05-31T10:42:24.817Z,32.18
2018-05-31T10:44:17.836Z,32.67
2018-05-31T10:45:17.900Z,32.67
2018-05-31T10:47:10.913Z,32.30
2018-05-31T10:48:10.990Z,32.09
2018-05-31T10:50:04.003Z,31.64
2018-05-31T10:51:04.070Z,31.64
2018-05-31T10:52:57.080Z,31.56
2018-05-31T10:53:57.153Z,31.56
2018-05-31T10:55:50.176Z,31.44
2018-05-31T10:56:50.238Z,31.42
2018-05-31T10:58:43.262Z,31.89
2018-05-31T10:59:43.328Z,31.99
2018-05-31T11:01:36.340Z,32.15
2018-05-31T11:02:36.415Z,32.22
2018-05-31T11:04:29.442Z,32.41
2018-05-31T11:05:29.507Z,32.31
2018-05-31T11:07:22.519Z,31.97
2018-05-31T11:08:22.592Z,32.21
2018-05-31T11:10:15.611Z,32.33
2018-05-31T11:11:15.676Z,32.22
2018-05-31T11:13:08.689Z,32.38
2018-05-31T11:14:08.762Z,32.68
2018-05-31T11:16:01.775Z,32.71
2018-05-31T11:17:01.905Z,32.80
2018-05-31T11:18:54.864Z,32.37
2018-05-31T11:19:54.939Z,32.36
2018-05-31T11:21:47.957Z,32.58
2018-05-31T11:22:48.023Z,32.75
2018-05-31T11:24:41.072Z,32.48
2018-05-31T11:25:41.110Z,32.43
2018-05-31T11:27:34.129Z,32.51
2018-05-31T11:28:34.197Z,32.51
2018-05-31T11:30:27.212Z,32.41
2018-05-31T11:31:27.279Z,32.40
2018-05-31T11:33:20.292Z,32.14
2018-05-31T11:34:20.368Z,32.21
2018-05-31T11:36:13.388Z,32.52
2018-05-31T11:37:13.452Z,32.52
2018-05-31T11:39:06.465Z,32.59
2018-05-31T11:40:06.540Z,32.71
2018-05-31T11:41:59.557Z,32.83
2018-05-31T11:42:59.622Z,32.87
2018-05-31T11:44:52.627Z,33.02
2018-05-31T11:45:52.706Z,33.09
2018-05-31T11:47:45.722Z,33.14
2018-05-31T11:48:45.789Z,33.45
2018-05-31T11:50:38.799Z,33.32
2018-05-31T11:51:38.875Z,33.27
2018-05-31T11:53:31.892Z,32.70
2018-05-31T11:54:31.955Z,32.59
2018-05-31T11:56:25.022Z,31.97
2018-05-31T11:57:25.040Z,32.07
2018-05-31T11:59:18.056Z,32.07
2018-05-31T12:00:18.134Z,32.11
2018-05-31T12:02:11.156Z,32.33
2018-05-31T12:03:11.221Z,32.51
2018-05-31T12:05:04.236Z,32.80
2018-05-31T12:06:04.304Z,32.96
2018-05-31T12:07:57.325Z,32.89
2018-05-31T12:08:57.391Z,32.89
2018-05-31T12:10:50.432Z,32.95
2018-05-31T12:11:50.481Z,32.87
2018-05-31T12:13:43.510Z,32.56
2018-05-31T12:14:43.579Z,32.58
2018-05-31T12:16:36.627Z,32.58
2018-05-31T12:17:36.695Z,32.58
2018-05-31T12:19:29.685Z,32.74
2018-05-31T12:20:29.754Z,32.97
2018-05-31T12:22:22.771Z,33.08
2018-05-31T12:23:22.838Z,33.05
2018-05-31T12:25:15.854Z,32.34
2018-05-31T12:26:15.923Z,32.27
2018-05-31T12:28:08.942Z,32.29
2018-05-31T12:29:09.006Z,32.51
2018-05-31T12:31:02.028Z,32.70
2018-05-31T12:32:02.122Z,32.65
2018-05-31T12:33:55.107Z,32.65
2018-05-31T12:34:55.190Z,32.71
2018-05-31T12:36:48.199Z,32.85
2018-05-31T12:37:48.263Z,32.93
2018-05-31T12:39:41.274Z,33.15
2018-05-31T12:40:41.346Z,33.39
2018-05-31T12:42:34.362Z,33.37
2018-05-31T12:43:34.424Z,33.34
2018-05-31T12:45:27.436Z,33.34
2018-05-31T12:46:27.507Z,33.34
2018-05-31T12:48:20.524Z,33.52
2018-05-31T12:49:20.590Z,33.43
2018-05-31T12:51:13.601Z,33.49
2018-05-31T12:52:13.674Z,33.46
2018-05-31T12:54:06.690Z,33.09
2018-05-31T12:55:06.758Z,33.23
2018-05-31T12:56:59.772Z,33.39
2018-05-31T12:57:59.841Z,33.23
2018-05-31T12:59:52.863Z,33.00
2018-05-31T13:00:52.927Z,32.73
2018-05-31T13:02:46.451Z,32.59
2018-05-31T13:03:46.517Z,32.55
2018-05-31T13:05:39.558Z,32.60
2018-05-31T13:06:39.600Z,32.52
2018-05-31T13:08:32.618Z,32.45
2018-05-31T13:09:32.684Z,32.49
2018-05-31T13:11:25.696Z,32.52
2018-05-31T13:12:25.770Z,32.22
2018-05-31T13:14:18.788Z,32.23
2018-05-31T13:15:18.854Z,32.08
2018-05-31T13:17:11.871Z,32.16
2018-05-31T13:18:11.944Z,32.14
2018-05-31T13:20:04.961Z,32.37
2018-05-31T13:21:05.027Z,32.40
2018-05-31T13:22:58.043Z,32.40
2018-05-31T13:23:58.109Z,32.38
2018-05-31T13:25:51.121Z,32.30
2018-05-31T13:26:51.193Z,32.29
2018-05-31T13:28:44.210Z,31.99
2018-05-31T13:29:44.277Z,31.97
2018-05-31T13:31:37.287Z,31.93
2018-05-31T13:32:37.362Z,31.92
2018-05-31T13:34:30.383Z,32.18
2018-05-31T13:35:30.442Z,32.04
2018-05-31T13:37:23.456Z,31.81
2018-05-31T13:38:23.524Z,31.81
2018-05-31T13:40:16.540Z,31.92
2018-05-31T13:41:16.606Z,31.92
2018-05-31T13:43:09.643Z,31.94
2018-05-31T13:44:09.692Z,32.03
2018-05-31T13:46:02.699Z,31.94
2018-05-31T13:47:02.773Z,31.92
2018-05-31T13:48:55.793Z,31.89
2018-05-31T13:49:55.859Z,31.87
2018-05-31T13:51:48.875Z,31.99
2018-05-31T13:52:48.942Z,32.00
2018-05-31T13:54:41.958Z,31.54
2018-05-31T13:55:42.027Z,31.33
2018-05-31T13:57:35.038Z,31.43
2018-05-31T13:58:35.111Z,31.24
2018-05-31T14:00:28.130Z,31.33
2018-05-31T14:01:28.194Z,31.39
2018-05-31T14:03:21.717Z,31.34
2018-05-31T14:04:21.785Z,31.29
2018-05-31T14:06:14.795Z,31.29
2018-05-31T14:07:14.866Z,31.22
2018-05-31T14:09:07.881Z,31.17
2018-05-31T14:10:07.947Z,31.10
2018-05-31T14:12:00.957Z,30.85
2018-05-31T14:13:01.034Z,30.92
2018-05-31T14:14:54.046Z,30.69
2018-05-31T14:15:54.111Z,30.59
2018-05-31T14:17:47.136Z,30.31
2018-05-31T14:18:47.209Z,30.35
2018-05-31T14:20:40.226Z,30.13
2018-05-31T14:21:40.291Z,30.12
2018-05-31T14:23:33.313Z,30.25
2018-05-31T14:24:33.371Z,30.28
2018-05-31T14:26:26.380Z,30.09
2018-05-31T14:27:26.479Z,30.09
2018-05-31T14:29:19.468Z,29.78
2018-05-31T14:30:19.524Z,29.72
2018-05-31T14:32:12.538Z,29.75
2018-05-31T14:33:12.610Z,29.59
2018-05-31T14:35:05.625Z,29.34
2018-05-31T14:36:05.691Z,28.98
2018-05-31T14:37:58.704Z,28.79
2018-05-31T14:38:58.769Z,28.89
2018-05-31T14:40:51.784Z,28.75
2018-05-31T14:41:51.854Z,28.64
2018-05-31T14:43:44.864Z,28.72
2018-05-31T14:44:44.929Z,28.67
2018-05-31T14:46:37.938Z,28.66
2018-05-31T14:47:38.008Z,28.57
2018-05-31T14:49:31.023Z,28.32
2018-05-31T14:50:31.106Z,28.27
2018-05-31T14:52:24.099Z,28.10
2018-05-31T14:53:24.163Z,28.10
2018-05-31T14:55:17.175Z,28.04
2018-05-31T14:56:17.247Z,28.02
2018-05-31T14:58:10.251Z,27.89
2018-05-31T14:59:10.321Z,27.77
2018-05-31T15:01:03.334Z,27.80
2018-05-31T15:02:03.400Z,27.67
2018-05-31T15:03:56.412Z,27.55
2018-05-31T15:04:56.477Z,27.47
2018-05-31T15:06:49.486Z,27.48
2018-05-31T15:07:49.554Z,27.36
2018-05-31T15:09:42.573Z,27.45
2018-05-31T15:10:42.632Z,27.40
2018-05-31T15:12:35.643Z,27.36
2018-05-31T15:13:35.710Z,27.30
2018-05-31T15:15:28.721Z,27.12
2018-05-31T15:16:28.789Z,27.00
2018-05-31T15:18:21.795Z,26.81
2018-05-31T15:19:21.938Z,26.78
2018-05-31T15:21:14.884Z,26.65
2018-05-31T15:22:14.948Z,26.59
2018-05-31T15:24:07.959Z,26.48
2018-05-31T15:25:08.017Z,26.59
2018-05-31T15:27:01.029Z,26.65
2018-05-31T15:28:01.093Z,26.73
2018-05-31T15:29:54.134Z,26.80
2018-05-31T15:30:54.192Z,26.81
2018-05-31T15:32:47.197Z,26.85
2018-05-31T15:33:47.268Z,26.85
2018-05-31T15:35:40.281Z,26.85
2018-05-31T15:36:40.343Z,26.84
2018-05-31T15:38:33.357Z,26.84
2018-05-31T15:39:33.427Z,26.80
2018-05-31T15:41:26.435Z,26.74
2018-05-31T15:42:26.507Z,26.78
2018-05-31T15:44:19.519Z,26.81
2018-05-31T15:45:19.574Z,26.77
2018-05-31T15:47:12.581Z,26.92
2018-05-31T15:48:12.657Z,26.92
2018-05-31T15:50:05.662Z,26.90
2018-05-31T15:51:05.728Z,26.96
2018-05-31T15:52:58.775Z,26.99
2018-05-31T15:53:58.809Z,27.05
2018-05-31T15:55:51.820Z,27.05
2018-05-31T15:56:51.883Z,26.89
2018-05-31T15:58:44.898Z,27.03
2018-05-31T15:59:44.974Z,26.99
2018-05-31T16:01:37.981Z,26.92
2018-05-31T16:02:38.044Z,26.90
2018-05-31T16:04:31.055Z,26.89
2018-05-31T16:05:31.117Z,26.95
2018-05-31T16:07:24.124Z,26.97
2018-05-31T16:08:24.196Z,27.11
2018-05-31T16:10:17.205Z,27.21
2018-05-31T16:11:17.271Z,26.99
2018-05-31T16:13:10.288Z,26.88
2018-05-31T16:14:10.367Z,26.89
2018-05-31T16:16:03.373Z,26.96
2018-05-31T16:17:03.437Z,27.05
2018-05-31T16:18:56.444Z,27.05
2018-05-31T16:19:56.536Z,27.00
2018-05-31T16:21:49.525Z,26.90
2018-05-31T16:22:49.587Z,26.93
2018-05-31T16:24:42.607Z,26.90
2018-05-31T16:25:42.671Z,26.88
2018-05-31T16:27:35.675Z,26.84
2018-05-31T16:28:35.748Z,26.84
2018-05-31T16:30:28.758Z,26.81
2018-05-31T16:31:28.822Z,26.71
2018-05-31T16:33:21.825Z,26.60
2018-05-31T16:34:21.898Z,26.53
2018-05-31T16:36:14.913Z,26.55
2018-05-31T16:37:14.983Z,26.70
2018-05-31T16:39:07.998Z,26.75
2018-05-31T16:40:08.069Z,26.77
2018-05-31T16:42:01.082Z,26.83
2018-05-31T16:43:01.150Z,26.80
2018-05-31T16:44:54.189Z,26.81
2018-05-31T16:45:54.237Z,26.73
2018-05-31T16:47:47.264Z,26.71
2018-05-31T16:48:47.313Z,26.73
2018-05-31T16:50:40.325Z,26.58
2018-05-31T16:51:40.386Z,26.63
2018-05-31T16:53:33.394Z,26.45
2018-05-31T16:54:33.460Z,26.43
2018-05-31T16:56:26.476Z,26.38
2018-05-31T16:57:26.544Z,26.37
2018-05-31T16:59:19.595Z,26.29
2018-05-31T17:00:19.617Z,26.19
2018-05-31T17:02:12.635Z,26.22
2018-05-31T17:03:12.696Z,26.33
2018-05-31T17:05:05.723Z,26.25
2018-05-31T17:06:05.790Z,26.21
2018-05-31T17:07:58.796Z,26.28
2018-05-31T17:08:58.871Z,26.21
2018-05-31T17:10:51.874Z,26.31
2018-05-31T17:11:51.938Z,26.21
2018-05-31T17:13:44.939Z,26.22
2018-05-31T17:14:45.010Z,26.23
2018-05-31T17:16:38.020Z,26.19
2018-05-31T17:17:38.086Z,26.22
2018-05-31T17:19:31.097Z,26.23
2018-05-31T17:20:31.167Z,26.25
2018-05-31T17:22:24.176Z,26.38
2018-05-31T17:23:24.241Z,26.40
2018-05-31T17:25:17.754Z,26.40
2018-05-31T17:26:17.817Z,26.48
2018-05-31T17:28:10.823Z,26.41
2018-05-31T17:29:10.891Z,26.47
2018-05-31T17:31:05.657Z,26.38
2018-05-31T17:32:05.499Z,26.36
2018-05-31T17:33:58.502Z,26.26
2018-05-31T17:34:58.588Z,26.23
2018-05-31T17:36:51.621Z,26.16
2018-05-31T17:37:51.750Z,26.06
2018-05-31T17:39:44.669Z,26.05
2018-05-31T17:40:44.755Z,25.99
2018-05-31T17:42:37.757Z,25.90
2018-05-31T17:43:37.839Z,25.90
2018-05-31T17:45:30.832Z,25.75
2018-05-31T17:46:30.918Z,25.72
2018-05-31T17:48:24.437Z,25.73
2018-05-31T17:49:24.108Z,25.72
2018-05-31T17:51:17.530Z,25.60
2018-05-31T17:52:17.097Z,25.58
2018-05-31T17:54:12.105Z,25.40
2018-05-31T17:55:11.150Z,25.28
2018-05-31T17:57:03.225Z,25.26
2018-05-31T17:58:03.297Z,25.21
2018-05-31T17:59:56.278Z,25.07
2018-05-31T18:00:56.341Z,25.10
2018-05-31T18:02:49.357Z,25.04
2018-05-31T18:03:49.427Z,25.08
2018-05-31T18:05:42.430Z,25.01
2018-05-31T18:06:42.492Z,24.96
2018-05-31T18:08:35.498Z,24.95
2018-05-31T18:09:35.568Z,24.95
2018-05-31T18:11:28.607Z,24.80
2018-05-31T18:12:28.669Z,24.70
2018-05-31T18:14:21.671Z,24.57
2018-05-31T18:15:21.741Z,24.54
2018-05-31T18:17:14.744Z,24.55
2018-05-31T18:18:14.811Z,24.45
2018-05-31T18:20:07.846Z,24.23
2018-05-31T18:21:07.873Z,24.08
2018-05-31T18:23:12.588Z,24.05
2018-05-31T18:24:12.613Z,24.01
2018-05-31T18:26:17.245Z,24.02
2018-05-31T18:27:17.333Z,24.11
2018-05-31T18:29:21.945Z,24.14
2018-05-31T18:30:22.008Z,24.17
2018-05-31T18:32:15.044Z,24.21
2018-05-31T18:33:15.094Z,24.23
2018-05-31T18:35:08.100Z,24.23